Time;durP1;ratioP1;P1;durP2;ratioP2;P2;SDS_P1;SDS_P2;PMS_P1;PMS_P2;Temp;Humidity;BMP_temperature;BMP_pressure;BME280_temperature;BME280_humidity;BME280_pressure;Samples;Min_cycle;Max_cycle;Signal;HPM_P1;HPM_P2
2022/03/23 00:00:22;;;;;;;0.10;0.10;;;6.80;99.90;;;;;;5036008;28;20489;-90
2022/03/23 00:02:49;;;;;;;0.10;0.10;;;6.70;99.90;;;;;;5035885;28;20513;-91
2022/03/23 00:05:18;;;;;;;0.10;0.10;;;6.70;99.90;;;;;;5035986;28;20072;-91
2022/03/23 00:07:44;;;;;;;0.17;0.10;;;6.60;99.90;;;;;;5036208;28;20100;-91
2022/03/23 00:10:11;;;;;;;0.10;0.10;;;6.60;99.90;;;;;;5052003;28;20478;-88
2022/03/23 00:12:38;;;;;;;0.10;0.10;;;6.60;99.90;;;;;;5052416;28;20041;-91
2022/03/23 00:15:06;;;;;;;0.10;0.10;;;6.60;99.90;;;;;;5035599;28;20052;-88
2022/03/23 00:17:32;;;;;;;0.13;0.13;;;6.50;99.90;;;;;;5068619;28;20048;-91
2022/03/23 00:19:59;;;;;;;0.10;0.10;;;6.70;99.90;;;;;;5035758;28;20037;-88
2022/03/23 00:22:27;;;;;;;0.10;0.10;;;6.50;99.90;;;;;;5051873;28;20037;-88
2022/03/23 00:24:56;;;;;;;0.13;0.13;;;6.40;99.90;;;;;;5055592;28;20045;-91
2022/03/23 00:27:23;;;;;;;0.10;0.10;;;6.70;99.90;;;;;;5051903;28;20579;-89
2022/03/23 00:29:50;;;;;;;0.10;0.10;;;6.40;99.90;;;;;;5052089;28;20045;-90
2022/03/23 00:32:17;;;;;;;0.20;0.20;;;7.00;99.90;;;;;;5035358;28;20037;-88
2022/03/23 00:34:44;;;;;;;0.20;0.20;;;6.40;99.90;;;;;;5070476;28;20116;-91
2022/03/23 00:37:11;;;;;;;0.13;0.13;;;6.30;99.90;;;;;;5055863;28;20037;-91
2022/03/23 00:39:37;;;;;;;0.20;0.20;;;6.30;99.90;;;;;;5035788;28;20041;-91
2022/03/23 00:42:04;;;;;;;0.10;0.10;;;6.30;99.90;;;;;;5051522;28;20592;-88
2022/03/23 00:44:31;;;;;;;0.10;0.10;;;6.20;99.90;;;;;;5019148;28;20049;-88
2022/03/23 00:46:58;;;;;;;0.30;0.30;;;6.20;99.90;;;;;;5019195;28;20038;-88
2022/03/23 00:49:24;;;;;;;0.10;0.10;;;6.20;99.90;;;;;;5018944;28;20037;-90
2022/03/23 00:51:53;;;;;;;0.10;0.10;;;6.20;99.90;;;;;;5019136;28;20624;-90
2022/03/23 00:54:21;;;;;;;0.10;0.10;;;6.80;99.90;;;;;;5019665;28;20046;-88
2022/03/23 00:56:50;;;;;;;0.10;0.10;;;6.10;99.90;;;;;;5051673;28;20508;-88
2022/03/23 00:59:18;;;;;;;0.10;0.10;;;6.10;99.90;;;;;;5061356;28;20541;-88
2022/03/23 01:01:45;;;;;;;0.13;0.13;;;6.10;99.90;;;;;;5058079;28;20476;-88
2022/03/23 01:04:13;;;;;;;0.20;0.20;;;6.00;99.90;;;;;;5058444;28;20076;-88
2022/03/23 01:06:39;;;;;;;0.10;0.10;;;6.00;99.90;;;;;;5074637;28;20075;-88
2022/03/23 01:09:06;;;;;;;0.10;0.10;;;6.00;99.90;;;;;;5041868;28;20488;-91
2022/03/23 01:11:33;;;;;;;0.10;0.10;;;6.00;99.90;;;;;;5074546;28;20756;-88
2022/03/23 01:14:00;;;;;;;0.10;0.10;;;5.90;99.90;;;;;;5058217;28;20055;-90
2022/03/23 01:16:26;;;;;;;0.10;0.10;;;5.90;99.90;;;;;;5058287;28;20080;-91
2022/03/23 01:18:53;;;;;;;0.10;0.10;;;6.50;99.90;;;;;;5057760;28;20075;-90
2022/03/23 01:21:20;;;;;;;0.10;0.10;;;5.80;99.90;;;;;;5057690;28;20058;-88
2022/03/23 01:23:47;;;;;;;0.20;0.20;;;6.10;99.90;;;;;;5042062;28;20043;-90
2022/03/23 01:26:14;;;;;;;0.20;0.20;;;5.80;99.90;;;;;;5057890;28;20477;-88
2022/03/23 01:28:40;;;;;;;0.10;0.10;;;6.50;99.90;;;;;;5057817;28;20044;-90
2022/03/23 01:31:08;;;;;;;0.10;0.10;;;5.90;99.90;;;;;;5041655;28;20032;-91
2022/03/23 01:33:35;;;;;;;0.10;0.10;;;5.80;99.90;;;;;;5074446;28;20212;-88
2022/03/23 01:36:02;;;;;;;0.10;0.10;;;6.00;99.90;;;;;;5057745;28;20044;-88
2022/03/23 01:38:29;;;;;;;0.10;0.10;;;5.70;99.90;;;;;;5057361;28;20036;-88
2022/03/23 01:40:56;;;;;;;0.10;0.10;;;5.70;99.90;;;;;;5041410;28;20039;-90
2022/03/23 01:43:22;;;;;;;0.10;0.10;;;5.70;99.90;;;;;;5057787;28;20041;-88
2022/03/23 01:45:49;;;;;;;0.10;0.10;;;6.10;99.90;;;;;;5041415;28;20572;-90
2022/03/23 01:48:16;;;;;;;0.10;0.10;;;5.70;99.90;;;;;;5057079;28;20036;-88
2022/03/23 01:50:43;;;;;;;0.10;0.10;;;5.80;99.90;;;;;;5041272;28;20059;-88
2022/03/23 01:53:09;;;;;;;0.10;0.10;;;5.60;99.90;;;;;;5058026;28;20106;-91
2022/03/23 01:55:36;;;;;;;0.30;0.30;;;5.60;99.90;;;;;;5073459;28;20110;-88
2022/03/23 01:58:03;;;;;;;0.20;0.20;;;5.80;99.90;;;;;;5041288;28;20044;-88
2022/03/23 02:00:30;;;;;;;0.20;0.20;;;5.60;99.90;;;;;;5057102;28;20493;-91
2022/03/23 02:02:57;;;;;;;0.10;0.10;;;5.50;99.90;;;;;;5073717;28;20098;-88
2022/03/23 02:05:24;;;;;;;0.10;0.10;;;5.50;99.90;;;;;;5057295;28;20475;-90
2022/03/23 02:07:54;;;;;;;0.10;0.10;;;5.50;99.90;;;;;;5040924;28;20127;-88
2022/03/23 02:10:21;;;;;;;0.10;0.10;;;5.50;99.90;;;;;;5073674;28;20496;-90
2022/03/23 02:12:48;;;;;;;0.30;0.30;;;5.50;99.90;;;;;;5073762;28;20044;-87
2022/03/23 02:15:17;;;;;;;0.20;0.20;;;5.90;99.90;;;;;;5060225;28;20048;-90
2022/03/23 02:17:45;;;;;;;0.20;0.20;;;5.40;99.90;;;;;;5061572;28;20041;-89
2022/03/23 02:20:13;;;;;;;0.20;0.20;;;5.40;99.90;;;;;;5077344;28;20496;-87
2022/03/23 02:22:39;;;;;;;0.10;0.10;;;5.40;99.90;;;;;;5077541;28;20036;-88
2022/03/23 02:25:07;;;;;;;0.20;0.20;;;5.70;99.90;;;;;;5061077;28;20127;-88
2022/03/23 02:27:38;;;;;;;0.20;0.20;;;5.40;99.90;;;;;;5077241;28;20056;-90
2022/03/23 02:30:07;;;;;;;1.65;0.40;;;5.70;99.90;;;;;;5077468;28;20049;-90
2022/03/23 02:32:34;;;;;;;0.20;0.20;;;5.30;99.90;;;;;;5060761;28;20048;-90
2022/03/23 02:35:01;;;;;;;0.20;0.20;;;5.30;99.90;;;;;;5061010;28;20044;-88
2022/03/23 02:37:28;;;;;;;0.13;0.13;;;5.30;99.90;;;;;;5060614;28;20064;-90
2022/03/23 02:39:55;;;;;;;0.90;0.55;;;5.20;99.90;;;;;;5060572;28;20075;-88
2022/03/23 02:42:22;;;;;;;0.10;0.10;;;5.30;99.90;;;;;;5060766;28;20047;-90
2022/03/23 02:44:49;;;;;;;0.10;0.10;;;5.20;99.90;;;;;;5060586;28;20040;-88
2022/03/23 02:47:15;;;;;;;0.10;0.10;;;5.80;99.90;;;;;;5077096;28;20532;-88
2022/03/23 02:49:42;;;;;;;0.10;0.10;;;5.20;99.90;;;;;;5060492;28;20072;-90
2022/03/23 02:52:09;;;;;;;0.20;0.20;;;5.80;99.90;;;;;;5044094;28;20040;-88
2022/03/23 03:03:30;;;;;;;0.38;0.38;;;5.10;99.90;;;;;;5093245;28;20545;-90
2022/03/23 03:05:57;;;;;;;0.10;0.10;;;5.10;99.90;;;;;;5060461;28;20032;-88
2022/03/23 03:11:08;;;;;;;0.20;0.20;;;5.10;99.90;;;;;;5065292;28;20045;-90
2022/03/23 03:13:40;;;;;;;0.10;0.10;;;5.00;99.90;;;;;;5060287;28;20098;-88
2022/03/23 03:16:07;;;;;;;0.20;0.20;;;5.00;99.90;;;;;;5076543;28;20383;-89
2022/03/23 03:18:38;;;;;;;0.13;0.13;;;4.90;99.90;;;;;;5043363;28;20047;-90
2022/03/23 03:21:07;;;;;;;0.10;0.10;;;5.30;99.90;;;;;;5076506;28;20041;-88
2022/03/23 03:23:37;;;;;;;0.20;0.20;;;4.90;99.90;;;;;;5076344;28;20127;-90
2022/03/23 03:26:05;;;;;;;0.20;0.20;;;4.90;99.90;;;;;;5059981;28;20059;-87
2022/03/23 03:28:42;;;;;;;0.20;0.20;;;4.90;99.90;;;;;;5076268;28;20098;-88
2022/03/23 03:31:11;;;;;;;0.30;0.28;;;4.90;99.90;;;;;;5076359;28;20048;-90
2022/03/23 03:33:39;;;;;;;0.20;0.20;;;5.30;99.90;;;;;;5075888;28;20045;-89
2022/03/23 03:36:06;;;;;;;0.10;0.10;;;4.80;99.90;;;;;;5075867;28;20045;-90
2022/03/23 03:38:35;;;;;;;0.10;0.10;;;4.80;99.90;;;;;;5059272;28;20041;-88
2022/03/23 03:41:03;;;;;;;0.20;0.20;;;4.80;99.90;;;;;;5059882;28;20082;-90
2022/03/23 03:43:31;;;;;;;0.10;0.10;;;4.80;99.90;;;;;;5075709;28;20081;-88
2022/03/23 03:45:59;;;;;;;0.20;0.20;;;4.80;99.90;;;;;;5075922;28;20040;-88
2022/03/23 03:48:26;;;;;;;0.20;0.20;;;4.70;99.90;;;;;;5042901;28;20045;-90
2022/03/23 03:50:53;;;;;;;0.20;0.20;;;4.70;99.90;;;;;;5043283;28;20040;-90
2022/03/23 03:53:20;;;;;;;2.63;0.57;;;4.70;99.90;;;;;;5059343;28;20143;-90
2022/03/23 03:55:47;;;;;;;0.10;0.10;;;5.60;99.90;;;;;;5059606;28;20050;-88
2022/03/23 03:58:14;;;;;;;0.20;0.20;;;5.40;99.90;;;;;;5042824;28;20044;-89
2022/03/23 04:00:41;;;;;;;0.20;0.20;;;4.60;99.90;;;;;;5059182;28;20051;-88
2022/03/23 04:03:08;;;;;;;0.10;0.10;;;4.60;99.90;;;;;;5042927;28;20725;-90
2022/03/23 04:05:35;;;;;;;0.20;0.20;;;4.60;99.90;;;;;;5075351;28;20045;-90
2022/03/23 04:08:02;;;;;;;0.10;0.10;;;4.50;99.90;;;;;;5075491;28;20036;-90
2022/03/23 04:10:29;;;;;;;0.20;0.20;;;4.50;99.90;;;;;;5059235;28;20036;-89
2022/03/23 04:12:56;;;;;;;0.15;0.15;;;4.50;99.90;;;;;;5075909;28;20063;-89
2022/03/23 04:15:25;;;;;;;0.22;0.22;;;4.50;99.90;;;;;;5077617;28;20517;-89
2022/03/23 04:17:53;;;;;;;0.20;0.20;;;4.60;99.90;;;;;;5074917;28;20040;-90
2022/03/23 04:20:22;;;;;;;0.10;0.10;;;4.50;99.90;;;;;;5075702;28;20036;-90
2022/03/23 04:22:49;;;;;;;0.10;0.10;;;4.40;99.90;;;;;;5075991;28;20067;-90
2022/03/23 04:25:17;;;;;;;0.10;0.10;;;4.40;99.90;;;;;;5042303;28;20055;-90
2022/03/23 04:27:52;;;;;;;0.10;0.10;;;4.40;99.90;;;;;;5075205;28;20045;-90
2022/03/23 04:30:22;;;;;;;0.20;0.20;;;4.60;99.90;;;;;;5075226;28;20052;-90
2022/03/23 04:32:50;;;;;;;0.15;0.15;;;4.40;99.90;;;;;;5074665;28;20040;-90
2022/03/23 04:35:18;;;;;;;0.45;0.40;;;4.40;99.90;;;;;;5075546;28;20036;-90
2022/03/23 04:37:45;;;;;;;0.17;0.17;;;4.60;99.90;;;;;;5074402;28;20055;-90
2022/03/23 04:40:14;;;;;;;0.20;0.20;;;4.30;99.90;;;;;;5073161;28;20565;-90
2022/03/23 04:42:42;;;;;;;0.20;0.20;;;4.30;99.90;;;;;;5091358;28;20040;-88
2022/03/23 04:45:09;;;;;;;0.17;0.17;;;4.30;99.90;;;;;;5074653;28;20473;-90
2022/03/23 04:47:39;;;;;;;0.20;0.20;;;4.30;99.90;;;;;;5064092;28;20059;-88
2022/03/23 04:50:08;;;;;;;0.20;0.20;;;4.30;99.90;;;;;;5091387;28;20047;-88
2022/03/23 04:52:37;;;;;;;0.10;0.10;;;4.20;99.90;;;;;;5074703;28;20051;-90
2022/03/23 04:55:05;;;;;;;0.20;0.20;;;4.20;99.90;;;;;;5091431;28;20122;-90
2022/03/23 04:57:32;;;;;;;0.20;0.20;;;4.20;99.90;;;;;;5090751;28;20056;-90
2022/03/23 04:59:58;;;;;;;0.20;0.20;;;4.10;99.90;;;;;;5045162;28;20054;-88
2022/03/23 05:02:28;;;;;;;0.20;0.20;;;4.20;99.90;;;;;;5035093;28;20188;-90
2022/03/23 05:04:55;;;;;;;0.10;0.10;;;4.10;99.90;;;;;;5035645;28;20052;-90
2022/03/23 05:07:22;;;;;;;0.20;0.20;;;4.10;99.90;;;;;;5035053;28;20045;-90
2022/03/23 05:09:48;;;;;;;0.10;0.10;;;4.30;99.90;;;;;;5051301;28;20044;-90
2022/03/23 05:12:15;;;;;;;0.20;0.20;;;4.70;99.90;;;;;;5034389;28;20033;-90
2022/03/23 05:14:42;;;;;;;0.10;0.10;;;4.60;99.90;;;;;;5033925;28;20079;-90
2022/03/23 05:17:08;;;;;;;0.20;0.20;;;4.00;99.90;;;;;;5034509;28;20037;-88
2022/03/23 05:19:35;;;;;;;0.20;0.20;;;3.90;99.90;;;;;;5034364;28;20057;-88
2022/03/23 05:22:02;;;;;;;0.20;0.20;;;4.00;99.90;;;;;;5050942;28;20042;-88
2022/03/23 05:24:29;;;;;;;0.28;0.28;;;3.90;99.90;;;;;;5034701;28;20033;-87
2022/03/23 05:26:56;;;;;;;0.20;0.20;;;3.90;99.90;;;;;;5050799;28;20363;-88
2022/03/23 05:29:23;;;;;;;0.10;0.10;;;3.90;99.90;;;;;;5083436;28;20410;-90
2022/03/23 05:31:49;;;;;;;0.20;0.20;;;3.90;99.90;;;;;;5061844;28;20037;-90
2022/03/23 05:34:16;;;;;;;0.20;0.20;;;4.00;99.90;;;;;;5087347;28;20044;-88
2022/03/23 05:36:43;;;;;;;0.20;0.20;;;3.90;99.90;;;;;;5038120;28;20048;-90
2022/03/23 05:39:10;;;;;;;0.30;0.30;;;4.00;99.90;;;;;;5070967;28;20048;-89
2022/03/23 05:41:37;;;;;;;0.20;0.20;;;4.40;99.90;;;;;;5086927;28;20048;-88
2022/03/23 05:44:04;;;;;;;0.22;0.22;;;3.90;99.90;;;;;;5037722;28;20033;-88
2022/03/23 05:46:31;;;;;;;0.20;0.20;;;3.90;99.90;;;;;;5070556;28;20037;-90
2022/03/23 05:48:58;;;;;;;0.20;0.20;;;3.80;99.90;;;;;;5071306;28;20067;-88
2022/03/23 05:51:25;;;;;;;0.10;0.10;;;4.20;99.90;;;;;;5057952;28;20107;-90
2022/03/23 05:53:51;;;;;;;0.20;0.20;;;3.90;99.90;;;;;;5074461;28;20049;-91
2022/03/23 05:56:18;;;;;;;0.20;0.20;;;3.90;99.90;;;;;;5057828;28;20041;-88
2022/03/23 05:58:45;;;;;;;0.20;0.20;;;3.90;99.90;;;;;;5062899;28;20124;-88
2022/03/23 06:01:12;;;;;;;0.22;0.22;;;3.90;99.90;;;;;;5082904;28;20394;-88
2022/03/23 06:03:38;;;;;;;0.20;0.20;;;4.20;99.90;;;;;;5098590;28;20047;-88
2022/03/23 06:06:06;;;;;;;0.43;0.43;;;4.00;99.90;;;;;;5098126;28;20558;-88
2022/03/23 06:08:33;;;;;;;0.20;0.20;;;4.50;99.90;;;;;;5115184;28;20040;-90
2022/03/23 06:11:00;;;;;;;0.20;0.20;;;4.10;99.90;;;;;;5081562;28;20101;-90
2022/03/23 06:13:27;;;;;;;0.20;0.20;;;4.00;99.90;;;;;;5081467;28;20063;-91
2022/03/23 06:15:55;;;;;;;0.20;0.20;;;4.00;99.90;;;;;;5080897;28;20044;-90
2022/03/23 06:18:21;;;;;;;0.20;0.20;;;4.60;99.90;;;;;;5097934;28;20036;-90
2022/03/23 06:20:48;;;;;;;0.20;0.20;;;4.70;99.90;;;;;;5081333;28;20067;-90
2022/03/23 06:23:15;;;;;;;0.22;0.22;;;4.10;99.90;;;;;;5097751;28;20044;-88
2022/03/23 06:25:41;;;;;;;0.20;0.20;;;4.10;99.90;;;;;;5077907;28;20482;-90
2022/03/23 06:28:12;;;;;;;0.10;0.10;;;4.20;99.90;;;;;;5050000;28;20076;-92
2022/03/23 06:30:39;;;;;;;0.20;0.20;;;4.20;99.90;;;;;;5046651;28;20074;-91
2022/03/23 06:33:06;;;;;;;0.20;0.20;;;5.10;99.90;;;;;;5061537;28;20067;-91
2022/03/23 06:35:33;;;;;;;0.15;0.15;;;4.30;99.90;;;;;;5044687;28;20045;-91
2022/03/23 06:38:00;;;;;;;0.20;0.20;;;4.10;99.90;;;;;;5044441;28;20040;-90
2022/03/23 06:40:27;;;;;;;0.20;0.20;;;4.40;99.90;;;;;;5078616;28;20036;-91
2022/03/23 06:42:54;;;;;;;0.20;0.20;;;4.40;99.90;;;;;;5080302;28;20035;-90
2022/03/23 06:45:21;;;;;;;0.65;0.30;;;4.50;99.90;;;;;;5093464;28;20041;-90
2022/03/23 06:47:47;;;;;;;0.20;0.20;;;4.50;99.90;;;;;;5092952;28;20043;-91
2022/03/23 06:50:14;;;;;;;0.10;0.10;;;4.60;99.90;;;;;;5097390;28;20495;-91
2022/03/23 06:52:41;;;;;;;0.20;0.20;;;4.70;99.90;;;;;;5096748;28;20047;-89
2022/03/23 06:55:08;;;;;;;0.10;0.10;;;4.80;99.90;;;;;;5044005;28;20109;-88
2022/03/23 06:57:35;;;;;;;0.20;0.20;;;4.80;99.90;;;;;;5077457;28;20040;-91
2022/03/23 07:00:12;;;;;;;0.30;0.30;;;4.90;99.90;;;;;;5076364;28;20060;-91
2022/03/23 07:02:43;;;;;;;0.20;0.20;;;5.00;99.90;;;;;;5095943;28;20040;-88
2022/03/23 07:05:11;;;;;;;0.20;0.20;;;5.00;99.90;;;;;;5096815;28;20040;-90
2022/03/23 07:07:38;;;;;;;0.10;0.10;;;4.70;99.90;;;;;;5096477;28;20040;-88
2022/03/23 07:10:05;;;;;;;0.10;0.10;;;5.80;99.90;;;;;;5096492;28;20076;-90
2022/03/23 07:12:32;;;;;;;0.10;0.10;;;5.40;99.90;;;;;;5096857;28;20397;-94
2022/03/23 07:14:59;;;;;;;0.20;0.20;;;6.00;99.90;;;;;;5078278;28;20041;-93
2022/03/23 07:17:29;;;;;;;0.13;0.13;;;5.70;99.90;;;;;;5053471;28;20079;-96
2022/03/23 07:19:56;;;;;;;0.10;0.10;;;5.80;99.90;;;;;;5076433;28;20047;-88
2022/03/23 07:22:24;;;;;;;0.20;0.20;;;5.90;99.90;;;;;;5080779;28;20036;-94
2022/03/23 07:24:51;;;;;;;0.10;0.10;;;6.00;99.90;;;;;;5092946;28;20043;-92
2022/03/23 07:27:18;;;;;;;0.10;0.10;;;6.10;99.90;;;;;;5060240;28;20047;-95
2022/03/23 07:29:44;;;;;;;0.10;0.10;;;5.50;99.90;;;;;;5076597;28;20036;-93
2022/03/23 07:32:12;;;;;;;0.32;0.30;;;6.40;99.90;;;;;;5060137;28;20039;-92
2022/03/23 07:34:38;;;;;;;0.10;0.10;;;6.10;99.90;;;;;;5077096;28;20075;-91
2022/03/23 07:37:05;;;;;;;0.10;0.10;;;6.60;99.90;;;;;;5076642;28;20080;-91
2022/03/23 07:39:32;;;;;;;0.10;0.10;;;6.70;99.90;;;;;;5059779;28;20490;-96
2022/03/23 07:42:00;;;;;;;0.17;0.17;;;6.90;99.90;;;;;;5059703;28;20041;-92
2022/03/23 07:44:27;;;;;;;0.20;0.20;;;7.00;99.90;;;;;;5076643;28;20032;-96
2022/03/23 07:46:53;;;;;;;0.10;0.10;;;7.10;99.90;;;;;;5092421;28;20562;-91
2022/03/23 07:49:20;;;;;;;0.10;0.10;;;7.30;99.90;;;;;;5076694;28;20401;-92
2022/03/23 07:51:47;;;;;;;0.20;0.20;;;7.50;99.90;;;;;;5060006;28;20040;-92
2022/03/23 07:54:17;;;;;;;0.20;0.20;;;7.60;99.90;;;;;;5042907;28;20820;-92
2022/03/23 07:56:44;;;;;;;0.28;0.28;;;7.70;99.90;;;;;;5076873;28;20135;-92
2022/03/23 07:59:11;;;;;;;0.10;0.10;;;7.90;99.90;;;;;;5093132;28;20075;-92
2022/03/23 08:01:38;;;;;;;0.10;0.10;;;8.00;99.90;;;;;;5077052;28;20105;-96
2022/03/23 08:04:05;;;;;;;0.10;0.10;;;8.20;99.90;;;;;;5075667;28;20100;-92
2022/03/23 08:06:35;;;;;;;0.10;0.10;;;8.30;99.90;;;;;;5043041;28;20485;-92
2022/03/23 08:09:02;;;;;;;1.00;0.63;;;8.70;99.90;;;;;;5076011;28;20122;-96
2022/03/23 08:11:29;;;;;;;0.10;0.10;;;8.60;99.90;;;;;;5091254;28;20063;-96
2022/03/23 08:13:56;;;;;;;0.20;0.20;;;8.80;99.90;;;;;;5092801;28;20397;-96
2022/03/23 08:16:24;;;;;;;0.10;0.10;;;8.90;99.90;;;;;;5075748;28;20044;-92
2022/03/23 08:18:54;;;;;;;0.20;0.20;;;9.10;99.90;;;;;;5075826;28;20045;-95
2022/03/23 08:21:22;;;;;;;0.00;0.00;;;9.20;99.90;;;;;;5075772;28;20040;-96
2022/03/23 08:23:50;;;;;;;0.90;0.28;;;9.30;99.90;;;;;;5075752;28;20036;-96
2022/03/23 08:26:17;;;;;;;0.10;0.10;;;9.40;99.90;;;;;;5092320;28;20028;-92
2022/03/23 08:28:47;;;;;;;0.57;0.57;;;9.60;99.90;;;;;;5092526;28;20044;-93
2022/03/23 08:31:14;;;;;;;0.20;0.20;;;9.70;99.90;;;;;;5075495;28;20045;-92
2022/03/23 08:33:41;;;;;;;0.10;0.10;;;9.80;99.90;;;;;;5075781;28;20098;-92
2022/03/23 08:36:08;;;;;;;0.10;0.10;;;10.20;99.90;;;;;;5058859;28;20142;-92
2022/03/23 08:38:36;;;;;;;0.10;0.10;;;10.30;99.90;;;;;;5075690;28;20041;-92
2022/03/23 08:41:06;;;;;;;0.20;0.17;;;10.90;99.90;;;;;;5091605;28;20046;-96
2022/03/23 08:43:33;;;;;;;0.90;0.20;;;10.20;99.90;;;;;;5075277;28;20041;-92
2022/03/23 08:46:00;;;;;;;0.10;0.10;;;10.70;99.90;;;;;;5075409;28;20627;-92
2022/03/23 08:48:27;;;;;;;0.30;0.22;;;10.80;99.90;;;;;;5075345;28;20044;-92
2022/03/23 08:50:57;;;;;;;0.10;0.10;;;11.00;99.90;;;;;;5075296;28;20048;-95
2022/03/23 08:53:26;;;;;;;0.70;0.25;;;10.90;99.90;;;;;;5058895;28;20052;-95
2022/03/23 08:55:53;;;;;;;0.10;0.10;;;11.20;99.90;;;;;;5075660;28;20127;-96
2022/03/23 08:58:20;;;;;;;0.00;0.00;;;11.40;99.90;;;;;;5074420;28;20047;-96
2022/03/23 09:00:47;;;;;;;0.10;0.10;;;11.90;99.90;;;;;;5054716;28;20050;-92
2022/03/23 09:03:15;;;;;;;0.15;0.15;;;11.60;99.90;;;;;;5035757;28;20053;-93
2022/03/23 09:05:42;;;;;;;0.10;0.10;;;11.80;99.90;;;;;;5068671;28;20104;-96
2022/03/23 09:08:09;;;;;;;0.00;0.00;;;11.90;99.90;;;;;;5051663;28;20077;-92
2022/03/23 09:10:36;;;;;;;0.00;0.00;;;12.10;99.90;;;;;;5051755;28;20402;-96
2022/03/23 09:13:03;;;;;;;0.43;0.17;;;12.20;99.90;;;;;;5069134;28;20076;-92
2022/03/23 09:15:31;;;;;;;0.05;0.05;;;12.30;99.90;;;;;;5068235;28;20088;-93
2022/03/23 09:17:59;;;;;;;0.00;0.00;;;12.50;99.90;;;;;;5051463;28;20113;-92
2022/03/23 09:20:28;;;;;;;0.17;0.17;;;12.60;99.90;;;;;;5068568;28;20040;-96
2022/03/23 09:22:58;;;;;;;0.20;0.20;;;12.80;99.90;;;;;;5068417;28;20045;-96
2022/03/23 09:25:25;;;;;;;1.00;0.40;;;12.90;99.90;;;;;;5035768;28;20048;-92
2022/03/23 09:27:53;;;;;;;0.82;0.35;;;13.10;99.90;;;;;;5036668;28;20041;-96
2022/03/23 09:30:21;;;;;;;0.25;0.25;;;13.20;99.90;;;;;;5068519;28;20132;-96
2022/03/23 09:32:48;;;;;;;0.13;0.10;;;13.30;99.90;;;;;;5052124;28;20037;-92
2022/03/23 09:35:16;;;;;;;0.32;0.30;;;13.50;99.90;;;;;;5068605;28;20049;-92
2022/03/23 09:37:47;;;;;;;0.20;0.20;;;13.60;99.90;;;;;;5068992;28;20044;-92
2022/03/23 09:40:24;;;;;;;0.40;0.30;;;13.70;99.90;;;;;;5072157;28;20464;-95
2022/03/23 09:43:03;;;;;;;0.47;0.40;;;13.60;98.80;;;;;;5071412;28;20048;-92
2022/03/23 09:45:48;;;;;;;0.22;0.22;;;13.90;99.90;;;;;;5072867;28;20037;-96
2022/03/23 09:48:26;;;;;;;0.20;0.20;;;14.00;99.90;;;;;;5071792;28;20409;-96
2022/03/23 09:50:55;;;;;;;0.35;0.30;;;14.20;97.50;;;;;;5067988;28;20041;-92
2022/03/23 09:53:25;;;;;;;0.60;0.28;;;14.20;99.40;;;;;;5055202;28;20045;-96
2022/03/23 09:55:55;;;;;;;0.10;0.10;;;14.10;98.60;;;;;;5070352;28;20084;-96
2022/03/23 09:58:24;;;;;;;0.40;0.30;;;14.70;92.70;;;;;;5056061;28;20045;-92
2022/03/23 10:00:52;;;;;;;0.13;0.10;;;14.60;94.20;;;;;;5050140;28;20152;-93
2022/03/23 10:03:41;;;;;;;0.28;0.20;;;14.70;90.50;;;;;;5035064;28;20124;-96
2022/03/23 10:06:43;;;;;;;0.00;0.00;;;14.80;85.70;;;;;;5058174;28;20087;-92
2022/03/23 10:09:26;;;;;;;0.28;0.20;;;14.90;93.90;;;;;;5074093;28;20488;-92
2022/03/23 10:12:41;;;;;;;0.38;0.30;;;15.10;92.20;;;;;;5053256;28;20518;-93
2022/03/23 10:15:48;;;;;;;0.00;0.00;;;15.20;92.00;;;;;;5050663;28;20144;-92
2022/03/23 10:18:33;;;;;;;0.10;0.10;;;15.30;91.30;;;;;;5056337;28;20042;-93
2022/03/23 10:21:00;;;;;;;0.20;0.20;;;15.30;90.20;;;;;;5057067;28;20533;-92
2022/03/23 10:23:30;;;;;;;0.50;0.40;;;15.40;86.40;;;;;;5053780;28;20033;-92
2022/03/23 10:26:21;;;;;;;0.47;0.17;;;15.50;86.50;;;;;;5065424;28;20069;-96
2022/03/23 10:29:15;;;;;;;0.32;0.25;;;15.50;73.00;;;;;;5055206;28;20046;-95
2022/03/23 10:31:42;;;;;;;0.03;0.03;;;15.70;83.00;;;;;;5073998;28;20045;-96
2022/03/23 10:34:14;;;;;;;0.08;0.08;;;15.80;85.20;;;;;;5063832;28;20052;-96
2022/03/23 10:36:49;;;;;;;0.13;0.13;;;15.50;78.20;;;;;;5070951;28;20102;-93
2022/03/23 10:39:32;;;;;;;0.38;0.20;;;15.80;74.70;;;;;;5076322;28;20552;-93
2022/03/23 10:42:16;;;;;;;0.32;0.20;;;15.90;69.80;;;;;;5081487;28;20084;-92
2022/03/23 10:44:44;;;;;;;0.20;0.20;;;16.00;75.80;;;;;;5081191;28;20065;-80
2022/03/23 10:47:41;;;;;;;0.10;0.10;;;16.10;72.50;;;;;;5086291;28;20044;-87
2022/03/23 10:50:11;;;;;;;0.10;0.10;;;16.20;73.70;;;;;;5048035;28;20049;-82
2022/03/23 10:53:02;;;;;;;0.15;0.13;;;16.20;72.60;;;;;;5085199;28;20048;-84
2022/03/23 10:55:32;;;;;;;0.73;0.43;;;16.30;75.00;;;;;;5085617;28;20038;-93
2022/03/23 10:57:58;;;;;;;0.93;0.38;;;16.30;73.10;;;;;;5071334;28;20506;-91
2022/03/23 11:00:34;;;;;;;0.98;0.57;;;16.40;72.60;;;;;;5052437;28;20061;-85
2022/03/23 11:03:02;;;;;;;0.43;0.25;;;16.40;68.90;;;;;;5068186;28;20509;-86
2022/03/23 11:05:47;;;;;;;1.00;0.50;;;16.60;73.20;;;;;;5034856;28;20052;-86
2022/03/23 11:08:23;;;;;;;0.43;0.20;;;16.60;72.20;;;;;;5072691;28;20052;-85
2022/03/23 11:16:30;;;;;;;1.77;0.13;;;16.70;65.00;;;;;;5074618;28;20052;-84
2022/03/23 11:19:05;;;;;;;0.95;0.60;;;16.70;65.70;;;;;;5072117;28;20040;-85
2022/03/23 11:21:32;;;;;;;1.42;0.63;;;16.80;59.40;;;;;;5072315;28;20035;-86
2022/03/23 11:23:58;;;;;;;0.32;0.32;;;16.90;66.80;;;;;;5072530;28;20041;-86
2022/03/23 11:26:28;;;;;;;0.55;0.45;;;17.00;69.30;;;;;;5055959;28;20087;-86
2022/03/23 11:28:59;;;;;;;0.47;0.38;;;17.00;65.70;;;;;;5069035;28;20506;-86
2022/03/23 11:31:26;;;;;;;1.33;0.77;;;17.10;65.10;;;;;;5072148;28;20049;-89
2022/03/23 11:33:54;;;;;;;0.77;0.47;;;17.10;63.10;;;;;;5037036;28;20038;-90
2022/03/23 11:36:25;;;;;;;0.95;0.50;;;17.10;59.40;;;;;;5064469;28;20037;-89
2022/03/23 11:38:52;;;;;;;0.95;0.57;;;17.30;61.40;;;;;;5069800;28;20045;-90
2022/03/23 11:41:20;;;;;;;1.85;0.85;;;17.30;59.20;;;;;;5026399;28;20044;-86
2022/03/23 11:43:47;;;;;;;0.60;0.50;;;17.30;61.80;;;;;;5040984;28;20112;-85
2022/03/23 11:46:14;;;;;;;1.02;0.50;;;17.30;59.20;;;;;;5061108;28;20123;-90
2022/03/23 11:49:02;;;;;;;1.25;0.80;;;17.30;58.60;;;;;;5071685;28;20079;-90
2022/03/23 11:52:15;;;;;;;0.88;0.47;;;17.30;57.40;;;;;;5088159;28;20048;-91
2022/03/23 11:57:56;;;;;;;2.35;0.98;;;17.30;57.00;;;;;;5077067;28;20049;-84
2022/03/23 12:00:26;;;;;;;0.60;0.45;;;17.20;59.50;;;;;;5081525;28;20555;-91
2022/03/23 12:02:54;;;;;;;0.28;0.22;;;17.20;58.00;;;;;;5090955;28;20072;-92
2022/03/23 12:05:32;;;;;;;1.48;0.70;;;17.30;58.30;;;;;;5080646;28;20482;-92
2022/03/23 12:07:58;;;;;;;1.08;0.50;;;17.40;58.70;;;;;;5078175;28;20072;-92
2022/03/23 12:10:28;;;;;;;0.65;0.47;;;17.40;54.70;;;;;;5071601;28;20527;-84
2022/03/23 12:12:55;;;;;;;0.63;0.40;;;17.50;58.30;;;;;;5055010;28;20063;-84
2022/03/23 12:15:26;;;;;;;0.85;0.57;;;17.40;58.30;;;;;;5070923;28;20040;-92
2022/03/23 12:17:56;;;;;;;1.10;0.60;;;17.40;57.90;;;;;;5071054;28;20505;-92
2022/03/23 12:20:39;;;;;;;0.88;0.50;;;17.50;60.20;;;;;;5083505;28;20067;-92
2022/03/23 12:23:36;;;;;;;0.85;0.43;;;17.50;57.60;;;;;;5089991;28;20051;-84
2022/03/23 12:26:28;;;;;;;0.95;0.60;;;17.50;60.00;;;;;;5050991;28;20134;-85
2022/03/23 12:29:04;;;;;;;1.23;0.60;;;17.40;59.00;;;;;;5071214;28;20040;-84
2022/03/23 12:31:37;;;;;;;2.42;1.00;;;17.40;58.70;;;;;;5071114;28;20132;-85
2022/03/23 12:34:17;;;;;;;0.88;0.50;;;17.30;57.60;;;;;;5098070;28;20049;-90
2022/03/23 12:37:02;;;;;;;1.33;0.68;;;17.30;56.90;;;;;;5070940;28;20140;-92
2022/03/23 12:39:40;;;;;;;0.47;0.28;;;17.20;60.00;;;;;;5056193;28;20497;-91
2022/03/23 12:42:13;;;;;;;0.82;0.40;;;17.30;56.80;;;;;;5054487;28;20504;-85
2022/03/23 12:44:46;;;;;;;0.60;0.45;;;17.30;59.10;;;;;;5073299;28;20401;-92
2022/03/23 12:47:25;;;;;;;1.95;0.70;;;17.30;59.40;;;;;;5083961;28;20551;-91
2022/03/23 12:58:33;;;;;;;1.17;0.43;;;17.30;58.10;;;;;;5090423;28;20037;-92
2022/03/23 13:01:12;;;;;;;0.63;0.40;;;17.30;58.20;;;;;;5062186;28;20067;-84
2022/03/23 13:03:39;;;;;;;0.57;0.40;;;17.20;55.30;;;;;;5070251;28;20043;-85
2022/03/23 13:06:08;;;;;;;0.85;0.43;;;17.20;57.60;;;;;;5069970;28;20040;-85
2022/03/23 13:08:47;;;;;;;0.88;0.50;;;17.20;56.40;;;;;;5084720;28;20060;-92
2022/03/23 13:11:25;;;;;;;2.00;0.82;;;17.20;59.30;;;;;;5051353;28;20501;-94
2022/03/23 13:13:55;;;;;;;1.38;0.75;;;17.20;58.80;;;;;;5060732;28;20091;-95
2022/03/23 13:16:27;;;;;;;1.13;0.63;;;17.20;57.20;;;;;;5065168;28;20486;-94
2022/03/23 13:19:02;;;;;;;1.65;0.75;;;17.20;56.20;;;;;;5056853;28;20129;-84
2022/03/23 13:21:33;;;;;;;0.80;0.55;;;17.10;56.70;;;;;;5052771;28;20029;-84
2022/03/23 13:24:03;;;;;;;5.40;0.73;;;17.20;59.10;;;;;;5065370;28;20076;-83
2022/03/23 13:26:52;;;;;;;0.75;0.47;;;17.10;56.90;;;;;;5061373;28;20747;-92
2022/03/23 13:29:24;;;;;;;1.27;0.55;;;17.10;57.50;;;;;;5050951;28;20045;-84
2022/03/23 13:31:51;;;;;;;0.70;0.52;;;17.10;57.20;;;;;;5047677;28;20824;-91
2022/03/23 13:34:21;;;;;;;1.05;0.60;;;17.10;58.50;;;;;;5061390;28;20037;-91